createdAt,value
2022-09-14T00:04:40.555Z,99648.28
2022-09-14T00:09:41.954Z,99651.72
2022-09-14T00:14:43.505Z,99652.38
2022-09-14T00:19:44.924Z,99648.00
2022-09-14T00:24:46.366Z,99650.28
2022-09-14T00:29:47.824Z,99675.34
2022-09-14T00:34:49.319Z,99674.88
2022-09-14T00:39:50.809Z,99650.19
2022-09-14T00:44:52.219Z,99610.53
2022-09-14T00:49:54.051Z,99587.13
2022-09-14T00:54:59.400Z,99585.16
2022-09-14T01:00:00.906Z,99586.59
2022-09-14T01:05:03.051Z,99575.06
2022-09-14T01:10:17.105Z,99576.09
2022-09-14T01:15:21.190Z,99570.47
2022-09-14T01:20:29.097Z,99572.97
2022-09-14T01:25:58.306Z,99576.03
2022-09-14T01:31:03.477Z,99576.16
2022-09-14T01:36:08.837Z,99567.75
2022-09-14T01:41:14.425Z,99558.03
2022-09-14T01:46:24.041Z,99560.56
2022-09-14T01:51:40.064Z,99560.56
2022-09-14T01:57:03.065Z,99557.22
2022-09-14T02:02:27.677Z,99562.63
2022-09-14T02:07:29.812Z,99558.13
2022-09-14T02:12:31.369Z,99544.56
2022-09-14T02:17:33.121Z,99544.69
2022-09-14T02:22:35.214Z,99534.44
2022-09-14T02:27:36.634Z,99519.63
2022-09-14T02:32:46.759Z,99523.75
2022-09-14T02:38:03.175Z,99526.06
2022-09-14T02:43:17.359Z,99526.66
2022-09-14T02:48:37.662Z,99531.47
2022-09-14T02:53:53.618Z,99522.50
2022-09-14T02:58:55.059Z,99526.16
2022-09-14T03:03:56.531Z,99519.16
2022-09-14T03:08:57.943Z,99503.53
2022-09-14T03:13:59.317Z,99500.06
2022-09-14T03:19:00.734Z,99495.16
2022-09-14T03:24:03.047Z,99486.19
2022-09-14T03:29:06.575Z,99496.41
2022-09-14T03:34:10.520Z,99486.88
2022-09-14T03:39:11.944Z,99474.53
2022-09-14T03:44:13.356Z,99472.47
2022-09-14T03:49:14.977Z,99465.91
2022-09-14T03:54:16.430Z,99465.53
2022-09-14T03:59:17.835Z,99462.41
2022-09-14T04:04:19.287Z,99451.31
2022-09-14T04:09:21.230Z,99447.03
2022-09-14T04:14:23.836Z,99450.31
2022-09-14T04:19:25.279Z,99447.84
2022-09-14T04:24:30.411Z,99440.19
2022-09-14T04:29:32.565Z,99441.47
2022-09-14T04:34:34.138Z,99432.06
2022-09-14T04:39:35.816Z,99438.84
2022-09-14T04:44:37.240Z,99442.94
2022-09-14T04:49:38.684Z,99448.88
2022-09-14T04:54:40.151Z,99445.41
2022-09-14T04:59:41.551Z,99436.97
2022-09-14T05:04:43.161Z,99437.59
2022-09-14T05:09:44.613Z,99435.38
2022-09-14T05:14:46.609Z,99424.00
2022-09-14T05:19:48.061Z,99411.69
2022-09-14T05:24:49.529Z,99420.31
2022-09-14T05:29:51.173Z,99418.06
2022-09-14T05:34:52.597Z,99407.44
2022-09-14T05:39:54.204Z,99404.75
2022-09-14T05:44:55.925Z,99408.50
2022-09-14T05:49:57.905Z,99410.53
2022-09-14T05:54:59.469Z,99403.34
2022-09-14T06:00:01.193Z,99406.50
2022-09-14T06:05:02.914Z,99404.22
2022-09-14T06:10:04.774Z,99409.34
2022-09-14T06:15:07.050Z,99414.63
2022-09-14T06:20:08.713Z,99408.97
2022-09-14T06:25:10.538Z,99409.97
2022-09-14T06:30:12.575Z,99401.16
2022-09-14T06:35:14.098Z,99390.53
2022-09-14T06:40:15.660Z,99387.91
2022-09-14T06:45:17.085Z,99406.59
2022-09-14T06:50:18.857Z,99413.59
2022-09-14T06:55:20.455Z,99407.41
2022-09-14T07:00:22.045Z,99397.00
2022-09-14T07:05:23.437Z,99408.13
2022-09-14T07:10:24.962Z,99396.41
2022-09-14T07:15:26.834Z,99381.63
2022-09-14T07:20:28.244Z,99375.88
2022-09-14T07:25:29.681Z,99371.75
2022-09-14T07:30:31.306Z,99378.13
2022-09-14T07:35:33.019Z,99388.59
2022-09-14T07:40:34.583Z,99389.00
2022-09-14T07:45:38.063Z,99407.16
2022-09-14T07:50:39.507Z,99405.06
2022-09-14T07:55:41.129Z,99410.84
2022-09-14T08:00:42.543Z,99400.16
2022-09-14T08:05:43.963Z,99399.94
2022-09-14T08:10:45.353Z,99391.50
2022-09-14T08:15:46.873Z,99401.16
2022-09-14T08:20:48.307Z,99403.97
2022-09-14T08:25:50.107Z,99411.69
2022-09-14T08:30:51.539Z,99402.09
2022-09-14T08:35:57.842Z,99393.91
2022-09-14T08:41:20.583Z,99393.91
2022-09-14T08:46:33.610Z,99395.56
2022-09-14T08:51:35.245Z,99403.22
2022-09-14T08:56:41.837Z,99413.53
2022-09-14T09:02:01.134Z,99419.25
2022-09-14T09:07:14.206Z,99417.97
2022-09-14T09:12:40.307Z,99402.75
2022-09-14T09:17:46.136Z,99391.06
2022-09-14T09:22:54.624Z,99392.88
2022-09-14T09:28:09.423Z,99400.84
2022-09-14T09:33:22.093Z,99399.72
2022-09-14T09:38:26.711Z,99399.41
2022-09-14T09:43:48.349Z,99392.06
2022-09-14T09:48:49.777Z,99388.22
2022-09-14T09:54:13.454Z,99385.91
2022-09-14T09:59:22.103Z,99384.28
2022-09-14T10:04:28.059Z,99380.53
2022-09-14T10:09:29.582Z,99364.19
2022-09-14T10:14:33.997Z,99351.53
2022-09-14T10:19:36.588Z,99362.09
2022-09-14T10:24:38.574Z,99355.66
2022-09-14T10:29:42.651Z,99354.44
2022-09-14T10:34:44.315Z,99343.22
2022-09-14T10:39:57.919Z,99335.56
2022-09-14T10:45:02.509Z,99322.09
2022-09-14T10:50:28.638Z,99304.88
2022-09-14T10:55:38.256Z,99288.38
2022-09-14T11:00:55.631Z,99296.75
2022-09-14T11:06:00.074Z,99291.44
2022-09-14T11:11:11.298Z,99310.84
2022-09-14T11:16:57.790Z,99298.84
2022-09-14T11:22:17.583Z,99293.53
2022-09-14T11:27:18.993Z,99288.69
2022-09-14T11:32:35.918Z,99284.22
2022-09-14T11:37:42.839Z,99281.09
2022-09-14T11:43:16.826Z,99273.56
2022-09-14T11:48:45.644Z,99286.44
2022-09-14T11:53:47.414Z,99280.41
2022-09-14T11:58:49.623Z,99273.72
2022-09-14T12:03:57.362Z,99269.41
2022-09-14T12:09:17.421Z,99264.00
2022-09-14T12:14:24.818Z,99270.94
2022-09-14T12:19:27.117Z,99273.41
2022-09-14T12:24:28.688Z,99264.00
2022-09-14T12:29:34.125Z,99268.81
2022-09-14T12:34:35.651Z,99261.38
2022-09-14T12:39:37.122Z,99254.25
2022-09-14T12:44:41.293Z,99238.66
2022-09-14T12:49:42.830Z,99232.59
2022-09-14T12:55:16.867Z,99219.44
2022-09-14T13:00:20.028Z,99205.47
2022-09-14T13:05:25.127Z,99203.53
2022-09-14T13:10:31.430Z,99200.03
2022-09-14T13:15:37.240Z,99206.44
2022-09-14T13:20:38.686Z,99217.47
2022-09-14T13:25:40.330Z,99210.41
2022-09-14T13:30:42.577Z,99212.88
2022-09-14T13:35:53.287Z,99223.34
2022-09-14T13:40:56.802Z,99223.19
2022-09-14T13:45:58.588Z,99209.50
2022-09-14T13:51:00.280Z,99211.69
2022-09-14T13:56:29.997Z,99203.91
2022-09-14T14:01:31.859Z,99215.97
2022-09-14T14:06:35.672Z,99209.25
2022-09-14T14:11:40.053Z,99202.78
2022-09-14T14:16:42.666Z,99174.53
2022-09-14T14:21:44.171Z,99166.50
2022-09-14T14:26:51.586Z,99174.53
2022-09-14T14:31:55.362Z,99172.81
2022-09-14T14:36:56.777Z,99171.13
2022-09-14T14:42:01.430Z,99147.88
2022-09-14T14:47:04.831Z,99144.81
2022-09-14T14:52:06.423Z,99142.56
2022-09-14T14:57:08.803Z,99156.13
2022-09-14T15:02:10.246Z,99141.84
2022-09-14T15:07:11.714Z,99136.78
2022-09-14T15:12:13.213Z,99139.84
2022-09-14T15:17:14.654Z,99135.88
2022-09-14T15:22:16.132Z,99125.31
2022-09-14T15:27:17.626Z,99121.00
2022-09-14T15:32:19.204Z,99099.75
2022-09-14T15:37:20.951Z,99079.38
2022-09-14T15:42:22.474Z,99078.38
2022-09-14T15:47:24.008Z,99073.47
2022-09-14T15:52:25.458Z,99088.53
2022-09-14T15:57:27.012Z,99072.13
2022-09-14T16:02:28.516Z,99096.03
2022-09-14T16:07:30.038Z,99107.22
2022-09-14T16:12:31.585Z,99147.94
2022-09-14T16:17:32.990Z,99138.22
2022-09-14T16:22:34.445Z,99140.59
2022-09-14T16:27:35.934Z,99156.44
2022-09-14T16:32:37.432Z,99153.97
2022-09-14T16:37:38.873Z,99192.13
2022-09-14T16:42:40.277Z,99207.63
2022-09-14T16:47:41.708Z,99198.47
2022-09-14T16:52:43.185Z,99213.72
2022-09-14T16:57:44.556Z,99224.28
2022-09-14T17:02:51.713Z,99233.78
2022-09-14T17:07:53.163Z,99228.63
2022-09-14T17:12:54.546Z,99225.34
2022-09-14T17:17:56.032Z,99237.06
2022-09-14T17:22:57.445Z,99227.44
2022-09-14T17:27:58.885Z,99212.63
2022-09-14T17:33:00.282Z,99208.94
2022-09-14T17:38:01.759Z,99195.19
2022-09-14T17:43:03.145Z,99202.19
2022-09-14T17:48:06.405Z,99204.44
2022-09-14T17:53:07.910Z,99219.50
2022-09-14T17:58:09.601Z,99212.75
2022-09-14T18:03:11.189Z,99223.00
2022-09-14T18:08:12.782Z,99234.13
2022-09-14T18:13:14.222Z,99232.47
2022-09-14T18:18:15.593Z,99240.09
2022-09-14T18:23:17.226Z,99255.53
2022-09-14T18:28:18.643Z,99274.44
2022-09-14T18:33:20.080Z,99284.94
2022-09-14T18:38:21.500Z,99295.22
2022-09-14T18:43:22.857Z,99291.75
2022-09-14T18:48:24.586Z,99293.38
2022-09-14T18:53:25.967Z,99286.19
2022-09-14T18:58:27.654Z,99288.66
2022-09-14T19:03:31.151Z,99277.97
2022-09-14T19:08:32.934Z,99278.16
2022-09-14T19:13:34.655Z,99265.41
2022-09-14T19:18:36.663Z,99275.50
2022-09-14T19:23:38.823Z,99281.88
2022-09-14T19:28:41.976Z,99286.63
2022-09-14T19:33:45.626Z,99300.56
2022-09-14T19:38:48.971Z,99303.47
2022-09-14T19:43:50.466Z,99300.19
2022-09-14T19:48:53.052Z,99313.97
2022-09-14T19:53:57.798Z,99329.56
2022-09-14T19:59:02.055Z,99332.25
2022-09-14T20:04:05.715Z,99335.94
2022-09-14T20:09:15.229Z,99330.63
2022-09-14T20:14:19.622Z,99337.59
2022-09-14T20:19:23.916Z,99336.16
2022-09-14T20:24:28.006Z,99347.50
2022-09-14T20:29:31.408Z,99340.91
2022-09-14T20:34:32.974Z,99341.09
2022-09-14T20:39:34.787Z,99344.59
2022-09-14T20:44:36.177Z,99345.63
2022-09-14T20:49:37.622Z,99342.31
2022-09-14T20:54:39.001Z,99347.06
2022-09-14T20:59:40.381Z,99351.19
2022-09-14T21:04:41.793Z,99344.41
2022-09-14T21:09:43.874Z,99341.31
2022-09-14T21:14:45.289Z,99344.78
2022-09-14T21:19:46.818Z,99347.88
2022-09-14T21:24:48.290Z,99348.63
2022-09-14T21:29:50.206Z,99351.56
2022-09-14T21:34:51.642Z,99356.47
2022-09-14T21:39:53.821Z,99359.13
2022-09-14T21:44:55.245Z,99358.72
2022-09-14T21:49:56.641Z,99359.31
2022-09-14T21:54:58.013Z,99355.19
2022-09-14T21:59:59.484Z,99359.75
2022-09-14T22:05:00.961Z,99359.31
2022-09-14T22:10:02.414Z,99351.31
2022-09-14T22:15:04.104Z,99353.34
2022-09-14T22:20:06.744Z,99353.56
2022-09-14T22:25:08.467Z,99354.38
2022-09-14T22:30:10.476Z,99350.69
2022-09-14T22:35:11.857Z,99355.84
2022-09-14T22:40:13.304Z,99354.19
2022-09-14T22:45:14.849Z,99358.50
2022-09-14T22:50:16.349Z,99360.34
2022-09-14T22:55:17.777Z,99366.91
2022-09-14T23:00:19.261Z,99368.16
2022-09-14T23:05:20.844Z,99358.66
2022-09-14T23:10:22.901Z,99349.84
2022-09-14T23:15:24.504Z,99354.56
2022-09-14T23:20:25.880Z,99359.72
2022-09-14T23:25:27.614Z,99366.88
2022-09-14T23:30:29.407Z,99370.97
2022-09-14T23:35:33.669Z,99358.63
2022-09-14T23:40:37.166Z,99355.31
2022-09-14T23:45:38.639Z,99355.16
2022-09-14T23:50:40.450Z,99360.09
2022-09-14T23:55:41.837Z,99363.59
